Time;durP1;ratioP1;P1;durP2;ratioP2;P2;SDS_P1;SDS_P2;PMS_P1;PMS_P2;Temp;Humidity;BMP_temperature;BMP_pressure;BME280_temperature;BME280_humidity;BME280_pressure;Samples;Min_cycle;Max_cycle;Signal;HPM_P1;HPM_P2
2022/08/17 00:02:14;;;;;;;21.75;15.45;;;24.20;61.20;;;;;;9184090;19;20013;-68
2022/08/17 00:05:32;;;;;;;20.23;14.48;;;24.20;61.40;;;;;;9184256;19;20006;-68
2022/08/17 00:08:38;;;;;;;23.15;13.77;;;24.20;61.30;;;;;;9183009;19;20006;-68
2022/08/17 00:11:45;;;;;;;20.85;13.85;;;24.20;61.40;;;;;;9177930;19;20014;-68
2022/08/17 00:15:12;;;;;;;20.52;13.60;;;24.10;61.40;;;;;;9184520;19;20021;-67
2022/08/17 00:18:20;;;;;;;17.30;12.30;;;24.10;61.40;;;;;;9184039;19;20385;-68
2022/08/17 00:21:49;;;;;;;18.13;11.68;;;24.10;61.40;;;;;;9180799;19;20431;-67
2022/08/17 00:25:19;;;;;;;23.50;12.18;;;24.10;61.40;;;;;;9183713;19;20045;-71
2022/08/17 00:28:24;;;;;;;15.60;10.82;;;24.10;61.30;;;;;;9183129;19;20031;-68
2022/08/17 00:31:29;;;;;;;16.27;10.85;;;24.00;61.10;;;;;;9183372;19;20340;-68
2022/08/17 00:34:37;;;;;;;16.40;10.57;;;24.00;61.20;;;;;;9183611;19;20034;-67
2022/08/17 00:37:42;;;;;;;18.98;11.13;;;24.00;61.20;;;;;;9183547;19;20017;-68
2022/08/17 00:40:49;;;;;;;15.98;11.55;;;24.00;61.10;;;;;;9180641;19;20021;-68
2022/08/17 00:43:58;;;;;;;15.77;10.23;;;23.90;61.10;;;;;;9182303;19;20049;-68
2022/08/17 00:47:03;;;;;;;15.45;10.75;;;23.90;61.10;;;;;;9182177;19;20483;-68
2022/08/17 00:50:13;;;;;;;18.88;11.57;;;23.90;61.10;;;;;;9178597;19;20014;-68
2022/08/17 00:53:19;;;;;;;18.35;11.23;;;23.90;61.20;;;;;;9181170;19;20015;-69
2022/08/17 00:56:29;;;;;;;20.17;10.60;;;23.90;61.00;;;;;;9182006;19;20035;-69
2022/08/17 00:59:39;;;;;;;19.65;10.85;;;23.90;61.10;;;;;;9181928;19;20014;-70
2022/08/17 01:02:46;;;;;;;13.80;10.57;;;23.90;61.10;;;;;;9181546;19;20014;-69
2022/08/17 01:05:58;;;;;;;13.18;11.18;;;23.80;61.00;;;;;;9181884;19;20019;-70
2022/08/17 01:09:05;;;;;;;19.50;11.60;;;23.80;61.10;;;;;;9180334;19;20035;-68
2022/08/17 01:12:12;;;;;;;15.52;11.38;;;23.80;61.00;;;;;;9182559;19;20365;-68
2022/08/17 01:15:18;;;;;;;21.48;10.80;;;23.80;61.00;;;;;;9179950;19;20018;-69
2022/08/17 01:18:23;;;;;;;15.75;11.57;;;23.80;61.00;;;;;;9180005;19;20026;-68
2022/08/17 01:21:48;;;;;;;15.90;11.57;;;23.80;61.10;;;;;;9180991;19;20014;-68
2022/08/17 01:25:04;;;;;;;17.23;12.48;;;23.80;61.10;;;;;;9178634;19;20010;-69
2022/08/17 01:28:10;;;;;;;17.23;12.38;;;23.70;61.20;;;;;;9180767;19;20018;-68
2022/08/17 01:31:38;;;;;;;18.30;12.73;;;23.70;61.10;;;;;;9180519;19;20021;-68
2022/08/17 01:34:44;;;;;;;19.27;13.95;;;23.60;61.20;;;;;;9177996;19;20021;-68
2022/08/17 01:37:54;;;;;;;24.98;14.82;;;23.60;61.20;;;;;;9179203;19;20131;-69
2022/08/17 01:41:05;;;;;;;22.50;15.35;;;23.60;61.30;;;;;;9177848;19;20033;-68
2022/08/17 01:44:10;;;;;;;23.42;15.95;;;23.60;62.10;;;;;;9181680;19;20018;-68
2022/08/17 01:47:15;;;;;;;26.38;16.58;;;23.50;61.40;;;;;;9180057;19;20344;-68
2022/08/17 01:50:24;;;;;;;21.48;16.92;;;23.50;61.50;;;;;;9178696;19;20479;-68
2022/08/17 01:53:34;;;;;;;24.38;17.23;;;23.50;61.70;;;;;;9178520;19;20026;-68
2022/08/17 01:56:45;;;;;;;28.00;17.67;;;23.40;61.80;;;;;;9178445;19;20519;-68
2022/08/17 01:59:51;;;;;;;25.80;16.83;;;23.40;62.00;;;;;;9179830;19;20026;-68
2022/08/17 02:02:56;;;;;;;25.10;17.75;;;23.30;61.90;;;;;;9177517;19;20018;-69
2022/08/17 02:06:01;;;;;;;22.75;15.40;;;23.30;62.20;;;;;;9179234;19;20010;-69
2022/08/17 02:09:09;;;;;;;24.58;17.30;;;23.30;62.20;;;;;;9176231;19;20006;-69
2022/08/17 02:12:24;;;;;;;29.15;16.83;;;23.20;62.30;;;;;;9179461;19;20022;-70
2022/08/17 02:15:43;;;;;;;26.85;16.95;;;23.20;62.40;;;;;;9175055;19;20025;-67
2022/08/17 02:18:48;;;;;;;27.42;19.42;;;23.20;62.60;;;;;;9179462;19;20035;-67
2022/08/17 02:21:55;;;;;;;31.52;19.52;;;23.20;62.80;;;;;;9179546;19;20037;-66
2022/08/17 02:25:01;;;;;;;28.50;19.63;;;23.20;63.00;;;;;;9178396;19;20563;-66
2022/08/17 02:28:09;;;;;;;33.40;20.33;;;23.20;63.30;;;;;;9179398;19;20022;-68
2022/08/17 02:31:14;;;;;;;27.00;19.73;;;23.10;63.60;;;;;;9178964;19;20049;-68
2022/08/17 02:34:20;;;;;;;33.67;20.17;;;23.10;63.70;;;;;;9178972;19;20460;-69
2022/08/17 02:37:25;;;;;;;26.58;18.70;;;23.10;64.00;;;;;;9178818;19;20020;-69
2022/08/17 02:40:30;;;;;;;33.80;19.67;;;23.00;64.10;;;;;;9176431;19;20018;-67
2022/08/17 02:43:43;;;;;;;35.42;18.70;;;23.00;64.30;;;;;;9178311;19;20087;-68
2022/08/17 02:46:48;;;;;;;35.53;18.55;;;23.00;64.50;;;;;;9186424;19;20010;-67
2022/08/17 02:49:53;;;;;;;25.95;18.20;;;22.90;64.60;;;;;;9185636;19;20023;-68
2022/08/17 02:52:59;;;;;;;32.55;19.50;;;22.90;64.80;;;;;;9186957;19;20034;-68
2022/08/17 02:56:06;;;;;;;34.45;19.42;;;22.90;65.00;;;;;;9186671;19;20014;-66
2022/08/17 02:59:14;;;;;;;27.77;18.38;;;22.90;65.10;;;;;;9186828;19;20014;-69
2022/08/17 03:02:19;;;;;;;28.55;19.25;;;22.80;65.30;;;;;;9187970;19;20019;-67
2022/08/17 03:05:28;;;;;;;28.80;19.83;;;22.80;65.30;;;;;;9187031;19;20021;-67
2022/08/17 03:08:33;;;;;;;27.55;20.13;;;22.80;65.50;;;;;;9186279;19;20082;-66
2022/08/17 03:11:38;;;;;;;27.20;19.75;;;22.80;65.60;;;;;;9180906;19;20025;-66
2022/08/17 03:14:46;;;;;;;28.02;19.75;;;22.70;65.70;;;;;;9186642;19;20019;-67
2022/08/17 03:17:51;;;;;;;29.45;19.95;;;22.70;65.80;;;;;;9186064;19;20007;-68
2022/08/17 03:20:58;;;;;;;28.95;19.75;;;22.70;65.80;;;;;;9186270;19;20029;-68
2022/08/17 03:24:03;;;;;;;31.58;20.98;;;22.70;66.00;;;;;;9185222;19;20006;-67
2022/08/17 03:27:12;;;;;;;31.80;20.35;;;22.70;66.10;;;;;;9185924;19;20014;-66
2022/08/17 03:30:21;;;;;;;30.80;20.50;;;22.70;66.20;;;;;;9184331;19;20021;-67
2022/08/17 03:33:26;;;;;;;30.48;21.08;;;22.60;66.20;;;;;;9185452;19;20033;-67
2022/08/17 03:36:31;;;;;;;27.83;20.30;;;22.60;66.30;;;;;;9185564;19;20018;-67
2022/08/17 03:39:40;;;;;;;29.52;21.05;;;22.60;66.40;;;;;;9182326;19;20485;-68
2022/08/17 03:42:46;;;;;;;28.98;21.15;;;22.60;66.40;;;;;;9185150;19;20021;-66
2022/08/17 03:59:26;;;;;;;35.88;24.08;;;22.40;66.60;;;;;;9185317;19;20010;-67
2022/08/17 04:02:35;;;;;;;37.75;24.08;;;22.40;66.70;;;;;;9184216;19;20507;-67
2022/08/17 04:05:40;;;;;;;39.22;24.77;;;22.40;66.90;;;;;;9184101;19;20453;-67
2022/08/17 04:08:45;;;;;;;33.85;25.27;;;22.30;66.90;;;;;;9184189;19;20007;-67
2022/08/17 04:11:50;;;;;;;33.75;24.27;;;22.30;67.00;;;;;;9174655;19;20011;-68
2022/08/17 04:14:55;;;;;;;38.08;24.80;;;22.30;67.10;;;;;;9183542;19;20014;-68
2022/08/17 04:18:03;;;;;;;39.40;25.52;;;22.20;67.10;;;;;;9182637;19;20019;-68
2022/08/17 04:21:10;;;;;;;37.83;24.35;;;22.20;67.30;;;;;;9183096;19;20052;-68
2022/08/17 04:24:15;;;;;;;40.30;26.23;;;22.20;67.40;;;;;;9182637;19;20010;-67
2022/08/17 04:27:22;;;;;;;40.30;25.15;;;22.10;67.30;;;;;;9183663;19;20018;-68
2022/08/17 04:30:30;;;;;;;42.05;25.98;;;22.10;67.40;;;;;;9182234;19;20050;-69
2022/08/17 04:33:41;;;;;;;42.40;25.98;;;22.10;67.50;;;;;;9183475;19;20013;-67
2022/08/17 04:36:46;;;;;;;38.28;26.60;;;22.10;67.60;;;;;;9183720;19;20452;-67
2022/08/17 04:43:14;;;;;;;45.10;28.13;;;22.00;67.70;;;;;;9182756;19;20014;-68
2022/08/17 04:46:26;;;;;;;48.70;26.30;;;22.00;67.70;;;;;;9182729;19;20053;-71
2022/08/17 04:49:34;;;;;;;40.88;26.60;;;22.00;67.80;;;;;;9182304;19;20379;-68
2022/08/17 04:52:47;;;;;;;44.90;27.50;;;22.00;67.90;;;;;;9180482;19;20106;-69
2022/08/17 04:55:54;;;;;;;36.78;25.67;;;22.00;68.10;;;;;;9182217;19;20029;-70
2022/08/17 04:59:01;;;;;;;37.83;27.48;;;22.00;67.90;;;;;;9183022;19;20022;-69
2022/08/17 05:02:06;;;;;;;41.05;26.30;;;22.00;68.00;;;;;;9180965;19;20490;-69
2022/08/17 05:05:14;;;;;;;42.65;29.05;;;22.00;68.10;;;;;;9181795;19;20399;-69
2022/08/17 05:08:20;;;;;;;43.50;30.02;;;21.90;68.10;;;;;;9181064;19;20010;-69
2022/08/17 05:11:27;;;;;;;44.08;29.48;;;21.90;68.20;;;;;;9176137;19;20033;-70
2022/08/17 05:14:32;;;;;;;43.35;28.23;;;21.90;68.20;;;;;;9181172;19;20015;-69
2022/08/17 05:17:38;;;;;;;42.28;29.33;;;21.90;68.40;;;;;;9181418;19;20029;-71
2022/08/17 05:20:46;;;;;;;44.22;29.48;;;21.90;68.40;;;;;;9181037;19;20034;-70
2022/08/17 05:23:57;;;;;;;42.45;28.58;;;21.90;68.50;;;;;;9179277;19;20353;-69
2022/08/17 05:27:03;;;;;;;43.50;30.58;;;21.90;68.50;;;;;;9182035;19;20015;-69
2022/08/17 05:30:11;;;;;;;44.58;28.50;;;21.90;68.50;;;;;;9180245;19;20372;-67
2022/08/17 05:33:19;;;;;;;45.17;29.48;;;21.90;68.60;;;;;;9180338;19;20022;-68
2022/08/17 05:36:26;;;;;;;48.08;30.30;;;21.90;68.60;;;;;;9180539;19;20021;-69
2022/08/17 05:39:47;;;;;;;49.83;31.30;;;21.90;68.70;;;;;;9178974;19;20022;-67
2022/08/17 05:42:53;;;;;;;45.63;29.73;;;21.90;68.60;;;;;;9179279;19;20317;-68
2022/08/17 05:46:04;;;;;;;45.75;30.38;;;21.90;68.70;;;;;;9178393;19;20056;-67
2022/08/17 05:49:10;;;;;;;45.75;28.63;;;21.90;68.80;;;;;;9179930;19;20043;-67
2022/08/17 05:52:27;;;;;;;43.28;28.23;;;21.90;68.80;;;;;;9178294;19;20408;-69
2022/08/17 05:55:43;;;;;;;49.58;28.08;;;21.90;69.00;;;;;;9178385;19;20464;-67
2022/08/17 05:58:59;;;;;;;46.25;29.98;;;21.90;68.90;;;;;;9179605;19;20537;-69
2022/08/17 06:02:10;;;;;;;39.38;27.38;;;21.90;69.00;;;;;;9179907;19;20030;-68
2022/08/17 06:05:31;;;;;;;46.03;29.25;;;21.90;69.00;;;;;;9180180;19;20018;-68
2022/08/17 06:08:48;;;;;;;45.20;29.52;;;21.90;69.10;;;;;;9177276;19;20018;-66
2022/08/17 06:12:02;;;;;;;43.45;27.45;;;21.90;69.10;;;;;;9171189;19;20018;-68
2022/08/17 06:15:24;;;;;;;41.65;27.20;;;21.90;69.00;;;;;;9179597;19;20530;-68
2022/08/17 06:18:45;;;;;;;47.28;29.63;;;22.00;69.10;;;;;;9177300;19;20022;-67
2022/08/17 06:21:55;;;;;;;42.08;28.70;;;21.90;68.90;;;;;;9186265;19;20017;-67
2022/08/17 06:25:06;;;;;;;51.38;30.27;;;22.00;69.00;;;;;;9186661;19;20045;-67
2022/08/17 06:28:18;;;;;;;48.45;28.48;;;22.00;69.10;;;;;;9188483;19;20045;-68
2022/08/17 06:31:28;;;;;;;39.03;28.40;;;22.00;69.00;;;;;;9185814;19;20022;-67
2022/08/17 06:34:34;;;;;;;44.67;27.92;;;22.00;69.10;;;;;;9188195;19;20356;-66
2022/08/17 06:38:05;;;;;;;44.47;27.90;;;22.10;69.20;;;;;;9185460;19;20447;-66
2022/08/17 06:41:18;;;;;;;43.38;29.00;;;22.10;69.30;;;;;;9184726;19;20010;-69
2022/08/17 06:44:31;;;;;;;45.90;29.23;;;22.20;69.20;;;;;;9187516;19;20011;-69
2022/08/17 06:47:59;;;;;;;42.88;28.35;;;22.30;69.30;;;;;;9187777;19;20471;-68
2022/08/17 06:51:11;;;;;;;46.53;29.65;;;22.40;69.20;;;;;;9184750;19;20045;-69
2022/08/17 06:54:24;;;;;;;44.88;27.30;;;22.40;69.20;;;;;;9184911;19;20023;-70
2022/08/17 06:57:34;;;;;;;45.78;29.33;;;22.50;69.20;;;;;;9187281;19;20014;-69
2022/08/17 07:00:44;;;;;;;42.45;26.58;;;22.60;69.10;;;;;;9187498;19;20018;-69
2022/08/17 07:03:55;;;;;;;41.17;26.35;;;22.70;69.20;;;;;;9186534;19;20086;-68
2022/08/17 07:08:00;;;;;;;40.13;26.55;;;22.80;69.10;;;;;;9185171;19;20363;-68
2022/08/17 07:10:30;;;;;;;39.97;25.95;;;22.90;69.00;;;;;;9180246;19;20018;-68
2022/08/17 07:13:45;;;;;;;39.72;27.05;;;23.10;69.00;;;;;;9186368;19;20030;-70
2022/08/17 07:16:58;;;;;;;39.47;24.27;;;23.20;68.90;;;;;;9185694;19;20102;-69
2022/08/17 07:20:07;;;;;;;36.03;24.48;;;23.30;68.70;;;;;;9186911;19;20011;-70
2022/08/17 07:23:22;;;;;;;36.33;24.70;;;23.50;68.60;;;;;;9185640;19;20262;-69
2022/08/17 07:26:29;;;;;;;38.20;23.10;;;23.60;68.50;;;;;;9185646;19;20610;-69
2022/08/17 07:29:41;;;;;;;30.73;21.15;;;23.70;68.20;;;;;;9184958;19;20020;-69
2022/08/17 07:32:49;;;;;;;37.40;21.65;;;23.90;68.20;;;;;;9183745;19;20023;-70
2022/08/17 07:35:56;;;;;;;32.97;20.52;;;24.00;68.00;;;;;;9182971;19;20398;-69
2022/08/17 07:39:02;;;;;;;44.90;21.73;;;24.10;67.80;;;;;;9185007;19;20022;-68
2022/08/17 07:42:07;;;;;;;35.25;21.13;;;24.20;67.60;;;;;;9185562;19;20018;-70
2022/08/17 07:48:39;;;;;;;31.50;18.40;;;24.40;67.30;;;;;;9184664;19;20483;-69
2022/08/17 07:51:58;;;;;;;25.27;18.05;;;24.50;67.20;;;;;;9183525;19;20019;-69
2022/08/17 07:55:31;;;;;;;25.58;19.33;;;24.60;67.00;;;;;;9185248;19;20018;-69
2022/08/17 07:58:40;;;;;;;31.55;20.52;;;24.70;66.80;;;;;;9182962;19;20056;-70
2022/08/17 08:02:04;;;;;;;31.85;18.17;;;24.70;66.60;;;;;;9184179;19;20492;-70
2022/08/17 08:05:21;;;;;;;25.25;16.95;;;24.80;66.50;;;;;;9184369;19;20014;-70
2022/08/17 08:08:53;;;;;;;29.75;19.45;;;24.80;66.40;;;;;;9184464;19;20057;-69
2022/08/17 08:11:59;;;;;;;28.58;19.98;;;24.90;66.30;;;;;;9178303;19;20029;-71
2022/08/17 08:15:14;;;;;;;34.85;19.27;;;24.90;66.20;;;;;;9178006;19;20014;-69
2022/08/17 08:18:30;;;;;;;29.00;20.02;;;25.00;66.20;;;;;;9176312;19;20019;-65
2022/08/17 08:22:04;;;;;;;27.17;18.70;;;25.00;66.10;;;;;;9176879;19;20023;-66
2022/08/17 08:25:50;;;;;;;36.85;22.27;;;25.00;66.10;;;;;;9175560;19;20041;-66
2022/08/17 08:29:09;;;;;;;35.15;23.45;;;25.00;66.10;;;;;;9176164;19;20019;-64
2022/08/17 08:32:20;;;;;;;34.15;24.08;;;25.00;66.10;;;;;;9175663;19;20011;-66
2022/08/17 08:35:33;;;;;;;38.25;24.00;;;25.00;66.00;;;;;;9176517;19;20033;-67
2022/08/17 08:38:50;;;;;;;39.33;25.98;;;25.00;66.00;;;;;;9173748;19;20010;-66
2022/08/17 08:42:06;;;;;;;33.08;23.55;;;25.00;66.70;;;;;;9175311;19;20475;-69
2022/08/17 08:45:18;;;;;;;38.40;23.15;;;25.00;66.00;;;;;;9174519;19;20467;-64
2022/08/17 08:48:53;;;;;;;32.90;20.98;;;25.00;66.00;;;;;;9174797;19;20034;-66
2022/08/17 08:52:08;;;;;;;33.60;21.10;;;25.10;66.10;;;;;;9174943;19;20042;-65
2022/08/17 08:55:21;;;;;;;31.98;21.45;;;25.10;66.00;;;;;;9177265;19;20015;-68
2022/08/17 08:58:37;;;;;;;36.47;21.23;;;25.20;66.10;;;;;;9178757;19;20472;-65
2022/08/17 09:01:55;;;;;;;31.50;20.35;;;25.30;66.10;;;;;;9177512;19;20035;-66
2022/08/17 09:05:10;;;;;;;35.92;20.60;;;25.40;66.10;;;;;;9175681;19;20018;-65
2022/08/17 09:08:30;;;;;;;30.40;19.92;;;25.50;66.00;;;;;;9175422;19;20022;-67
2022/08/17 09:11:44;;;;;;;35.33;20.92;;;25.60;65.80;;;;;;9171106;19;20022;-66
2022/08/17 09:15:16;;;;;;;33.08;21.17;;;25.70;65.70;;;;;;9174478;19;20097;-63
2022/08/17 09:18:23;;;;;;;;;;;25.80;65.50;;;;;;9174636;19;20014;-65
2022/08/17 09:21:54;;;;;;;32.20;19.45;;;25.90;65.50;;;;;;9175277;19;19930;-64
2022/08/17 09:25:12;;;;;;;30.85;19.60;;;25.90;65.30;;;;;;9177051;19;20018;-64
2022/08/17 09:28:22;;;;;;;36.00;19.55;;;26.00;65.20;;;;;;9180718;19;20014;-65
2022/08/17 09:31:36;;;;;;;26.88;19.00;;;26.10;65.10;;;;;;9181194;19;20014;-66
2022/08/17 09:34:55;;;;;;;37.65;19.55;;;26.10;65.00;;;;;;9179061;19;20511;-66
2022/08/17 09:38:06;;;;;;;29.25;19.50;;;26.10;64.90;;;;;;9180880;19;20018;-66
2022/08/17 09:41:19;;;;;;;30.33;17.83;;;26.10;65.40;;;;;;9178382;19;20010;-66
2022/08/17 09:44:32;;;;;;;26.95;17.92;;;26.20;64.70;;;;;;9179088;19;20525;-67
2022/08/17 09:47:44;;;;;;;27.50;17.65;;;26.20;64.60;;;;;;9180779;19;20014;-66
2022/08/17 09:51:00;;;;;;;30.98;19.08;;;26.20;64.50;;;;;;9180940;19;20028;-67
2022/08/17 09:54:19;;;;;;;26.63;18.63;;;26.20;64.30;;;;;;9177790;19;20019;-67
2022/08/17 09:57:59;;;;;;;24.80;17.50;;;26.20;64.20;;;;;;9189298;19;20022;-66
2022/08/17 10:01:16;;;;;;;27.58;17.85;;;26.20;64.10;;;;;;9181651;19;20014;-66
2022/08/17 10:04:37;;;;;;;28.88;18.30;;;26.30;64.20;;;;;;9182914;19;20015;-66
2022/08/17 10:07:51;;;;;;;27.67;16.65;;;26.30;64.10;;;;;;9180816;19;20019;-66
2022/08/17 10:11:12;;;;;;;31.63;19.65;;;26.30;64.10;;;;;;9176646;19;20015;-68
2022/08/17 10:14:28;;;;;;;33.55;19.77;;;26.40;64.20;;;;;;9179129;19;20015;-65
2022/08/17 10:18:06;;;;;;;32.00;19.38;;;26.40;64.00;;;;;;9179894;19;20085;-65
2022/08/17 10:28:16;;;;;;;24.75;16.55;;;26.60;63.80;;;;;;9178496;19;20078;-66
2022/08/17 10:31:30;;;;;;;25.05;17.17;;;26.70;63.80;;;;;;9176198;19;20041;-67
2022/08/17 10:35:05;;;;;;;27.77;16.35;;;26.80;63.60;;;;;;9170761;19;20024;-69
2022/08/17 10:38:30;;;;;;;26.40;16.70;;;26.80;63.30;;;;;;9177037;19;20018;-65
2022/08/17 10:41:41;;;;;;;33.08;18.92;;;26.90;63.30;;;;;;9175344;19;20025;-65
2022/08/17 10:44:50;;;;;;;28.30;18.42;;;27.00;63.20;;;;;;9176298;19;20022;-65
2022/08/17 10:48:02;;;;;;;22.58;15.82;;;27.00;63.10;;;;;;9175440;19;20109;-65
2022/08/17 10:51:12;;;;;;;33.85;18.58;;;27.00;62.90;;;;;;9178569;19;20022;-66
2022/08/17 10:54:36;;;;;;;29.70;16.67;;;27.10;62.90;;;;;;9178833;19;20018;-67
2022/08/17 10:57:44;;;;;;;30.90;18.48;;;27.10;62.80;;;;;;9177018;19;20025;-67
2022/08/17 11:01:11;;;;;;;29.65;18.48;;;27.10;62.70;;;;;;9176180;19;20018;-68
2022/08/17 11:04:39;;;;;;;22.08;15.80;;;27.10;62.60;;;;;;9180802;19;20339;-66
2022/08/17 11:08:04;;;;;;;26.08;17.42;;;27.10;62.60;;;;;;9184105;19;20014;-68
2022/08/17 11:11:26;;;;;;;26.95;17.98;;;27.10;62.50;;;;;;9172623;19;20028;-66
2022/08/17 11:14:48;;;;;;;27.23;16.92;;;27.10;62.50;;;;;;9183908;19;20018;-66
2022/08/17 11:18:16;;;;;;;25.17;16.67;;;27.10;62.50;;;;;;9184893;19;20364;-66
2022/08/17 11:22:03;;;;;;;27.33;16.42;;;27.10;62.40;;;;;;9183429;19;20356;-65
2022/08/17 11:25:16;;;;;;;31.85;17.08;;;27.10;62.40;;;;;;9185488;19;20052;-65
2022/08/17 11:28:26;;;;;;;24.55;15.30;;;27.10;62.40;;;;;;9184079;19;20390;-67
2022/08/17 11:31:35;;;;;;;23.17;15.77;;;27.10;62.40;;;;;;9185188;19;20078;-67
2022/08/17 11:34:44;;;;;;;25.73;16.05;;;27.10;62.30;;;;;;9178559;19;20014;-67
2022/08/17 11:38:02;;;;;;;23.95;16.83;;;27.10;62.30;;;;;;9182021;19;20014;-67
2022/08/17 11:41:22;;;;;;;28.27;16.85;;;27.10;62.30;;;;;;9176999;19;20031;-67
2022/08/17 11:44:39;;;;;;;23.05;15.25;;;27.10;62.30;;;;;;9178469;19;20019;-68
2022/08/17 11:52:11;;;;;;;20.17;14.35;;;27.10;62.30;;;;;;9184343;19;20120;-66
2022/08/17 11:56:01;;;;;;;24.98;14.90;;;27.10;62.30;;;;;;9180570;19;20021;-66
2022/08/17 11:59:44;;;;;;;20.95;14.35;;;27.10;62.20;;;;;;9173696;19;20021;-67
2022/08/17 12:03:09;;;;;;;28.10;15.32;;;27.10;62.20;;;;;;9176161;19;20013;-65
2022/08/17 12:06:42;;;;;;;22.83;14.82;;;27.20;62.20;;;;;;9177489;19;20022;-66
2022/08/17 12:09:52;;;;;;;33.58;15.57;;;27.20;62.10;;;;;;9174002;19;20022;-67
2022/08/17 12:12:57;;;;;;;22.08;14.18;;;27.30;62.00;;;;;;9176714;19;20018;-66
2022/08/17 12:16:08;;;;;;;25.30;13.55;;;27.40;62.00;;;;;;9178636;19;20057;-65
2022/08/17 12:19:22;;;;;;;19.33;12.68;;;27.40;61.90;;;;;;9180674;19;20026;-66
2022/08/17 12:22:32;;;;;;;30.60;13.93;;;27.50;61.90;;;;;;9177638;19;20025;-65
2022/08/17 12:25:42;;;;;;;27.30;15.00;;;27.50;61.90;;;;;;9180681;19;20007;-65
2022/08/17 12:28:49;;;;;;;19.83;14.95;;;27.60;61.80;;;;;;9174279;19;20352;-66
2022/08/17 12:31:58;;;;;;;20.95;14.68;;;27.60;61.80;;;;;;9175955;19;20041;-68
2022/08/17 12:35:05;;;;;;;31.42;14.80;;;27.60;61.60;;;;;;9175834;19;20639;-68
2022/08/17 12:38:17;;;;;;;33.85;15.07;;;27.70;61.70;;;;;;9174226;19;20033;-69
2022/08/17 12:41:40;;;;;;;22.48;14.10;;;27.70;61.60;;;;;;9172064;19;20025;-68
2022/08/17 12:44:45;;;;;;;28.73;14.70;;;27.80;61.60;;;;;;9171978;19;20387;-67
2022/08/17 12:48:07;;;;;;;20.02;14.50;;;27.80;61.60;;;;;;9177068;19;20035;-70
2022/08/17 12:51:14;;;;;;;24.25;16.02;;;27.80;61.60;;;;;;9177614;19;20495;-71
2022/08/17 12:54:27;;;;;;;25.75;15.90;;;27.80;61.70;;;;;;9174703;19;20014;-69
2022/08/17 12:57:35;;;;;;;23.55;15.30;;;27.80;61.70;;;;;;9174117;19;20023;-69
2022/08/17 13:00:42;;;;;;;23.60;16.73;;;27.80;61.80;;;;;;9173623;19;20014;-67
2022/08/17 13:03:58;;;;;;;23.50;15.77;;;27.80;62.10;;;;;;9177890;19;20019;-67
2022/08/17 13:07:04;;;;;;;21.77;16.45;;;27.80;62.30;;;;;;9178258;19;20068;-68
2022/08/17 13:10:22;;;;;;;24.55;15.43;;;27.80;62.30;;;;;;9170810;19;20078;-68
2022/08/17 13:13:36;;;;;;;20.27;14.25;;;27.70;62.40;;;;;;9178825;19;20495;-68
2022/08/17 13:16:41;;;;;;;22.98;14.93;;;27.70;62.50;;;;;;9177635;19;20066;-68
2022/08/17 13:19:52;;;;;;;21.88;13.98;;;27.70;62.50;;;;;;9177493;19;20018;-69
2022/08/17 13:22:59;;;;;;;31.13;14.90;;;27.70;63.40;;;;;;9177997;19;20019;-66
2022/08/17 13:26:08;;;;;;;25.13;16.35;;;27.60;62.70;;;;;;9174460;19;20010;-68
2022/08/17 13:29:22;;;;;;;34.22;16.45;;;27.60;62.90;;;;;;9169656;19;20033;-67
2022/08/17 13:32:37;;;;;;;33.60;15.90;;;27.50;63.10;;;;;;9176346;19;20026;-68
2022/08/17 13:35:51;;;;;;;18.70;14.80;;;27.50;63.20;;;;;;9175623;19;20022;-68
2022/08/17 13:39:08;;;;;;;29.02;16.70;;;27.50;63.20;;;;;;9176081;19;20022;-68
2022/08/17 13:42:32;;;;;;;22.83;14.48;;;27.40;63.10;;;;;;9174747;19;20021;-67
2022/08/17 13:46:09;;;;;;;24.52;15.63;;;27.30;63.10;;;;;;9175312;19;20022;-67
2022/08/17 13:49:23;;;;;;;30.45;16.00;;;27.20;63.10;;;;;;9175488;19;20014;-68
2022/08/17 13:52:48;;;;;;;25.92;15.52;;;27.20;63.20;;;;;;9175718;19;20136;-67
2022/08/17 13:56:00;;;;;;;24.25;16.23;;;27.20;63.20;;;;;;9167104;19;20483;-73
2022/08/17 13:59:08;;;;;;;24.55;16.92;;;27.10;63.40;;;;;;9175243;19;20014;-74
2022/08/17 14:02:14;;;;;;;27.20;18.05;;;27.10;63.40;;;;;;9176193;19;20015;-73
2022/08/17 14:05:20;;;;;;;24.10;17.02;;;27.10;63.50;;;;;;9170020;19;20745;-71
2022/08/17 14:08:29;;;;;;;26.13;17.33;;;27.00;63.50;;;;;;9168418;19;20095;-71
2022/08/17 14:11:34;;;;;;;26.02;16.77;;;26.90;63.60;;;;;;9163839;19;20022;-70
2022/08/17 14:14:41;;;;;;;27.23;18.67;;;26.90;63.70;;;;;;9169723;19;20011;-70
2022/08/17 14:17:47;;;;;;;25.40;17.55;;;26.80;63.80;;;;;;9168895;19;20703;-70
2022/08/17 14:20:55;;;;;;;27.83;20.73;;;26.80;63.90;;;;;;9168528;19;20014;-70
2022/08/17 14:24:03;;;;;;;30.83;18.27;;;26.80;64.10;;;;;;9165938;19;20488;-69
2022/08/17 14:27:09;;;;;;;28.13;19.65;;;26.70;64.20;;;;;;9160976;19;20019;-68
2022/08/17 14:30:16;;;;;;;27.38;18.92;;;26.70;64.30;;;;;;9165500;19;20021;-70
2022/08/17 14:33:21;;;;;;;29.83;19.98;;;26.70;64.40;;;;;;9161886;19;20850;-69
2022/08/17 14:36:26;;;;;;;33.65;21.60;;;26.70;64.50;;;;;;9161747;19;20014;-71
2022/08/17 14:39:34;;;;;;;33.28;22.63;;;26.60;64.50;;;;;;9161611;19;20049;-72
2022/08/17 14:42:40;;;;;;;39.30;22.92;;;26.50;64.60;;;;;;9173441;19;20025;-70
2022/08/17 14:45:46;;;;;;;35.45;24.30;;;26.50;64.70;;;;;;9175669;19;20010;-71
2022/08/17 14:48:52;;;;;;;32.50;23.63;;;26.50;64.80;;;;;;9176976;19;20014;-71
2022/08/17 14:52:01;;;;;;;36.70;23.77;;;26.40;64.90;;;;;;9177142;19;20015;-72
2022/08/17 14:55:11;;;;;;;34.40;24.50;;;26.40;65.10;;;;;;9176663;19;20038;-71
2022/08/17 14:58:17;;;;;;;44.40;24.55;;;26.30;65.30;;;;;;9182203;19;20050;-70
2022/08/17 15:01:23;;;;;;;51.45;26.48;;;26.20;65.40;;;;;;9173731;19;20525;-70
2022/08/17 15:04:28;;;;;;;45.03;27.30;;;26.20;65.60;;;;;;9169984;19;20573;-71
2022/08/17 15:07:33;;;;;;;39.10;25.10;;;26.10;65.90;;;;;;9172443;19;20022;-72
2022/08/17 15:10:41;;;;;;;45.95;28.50;;;26.10;66.20;;;;;;9165301;19;20030;-72
2022/08/17 15:13:48;;;;;;;40.90;28.85;;;26.00;66.50;;;;;;9169746;19;20017;-70
2022/08/17 15:16:57;;;;;;;40.78;29.52;;;25.90;66.60;;;;;;9166791;19;20007;-70
2022/08/17 15:20:02;;;;;;;48.45;31.83;;;25.90;66.80;;;;;;9174537;19;20026;-70
2022/08/17 15:23:08;;;;;;;45.25;29.30;;;25.80;67.00;;;;;;9171277;19;20018;-71
2022/08/17 15:26:16;;;;;;;51.55;31.48;;;25.80;67.30;;;;;;9173163;19;20515;-71
2022/08/17 15:29:21;;;;;;;41.95;30.35;;;25.70;67.40;;;;;;9174793;19;20028;-71
2022/08/17 15:32:28;;;;;;;45.83;30.67;;;25.70;67.60;;;;;;9174436;19;20015;-70
2022/08/17 15:35:36;;;;;;;53.95;31.58;;;25.60;67.70;;;;;;9172161;19;20015;-70
2022/08/17 15:38:41;;;;;;;49.75;32.13;;;25.60;67.90;;;;;;9173630;19;20903;-69
2022/08/17 15:41:52;;;;;;;50.80;32.25;;;25.50;67.90;;;;;;9174018;19;20019;-71
2022/08/17 15:45:07;;;;;;;44.15;30.80;;;25.50;68.10;;;;;;9173560;19;20029;-69
2022/08/17 15:48:13;;;;;;;52.45;32.55;;;25.50;68.20;;;;;;9176181;19;20414;-70
2022/08/17 15:51:21;;;;;;;41.45;27.55;;;25.40;68.20;;;;;;9170595;19;20018;-69
2022/08/17 15:54:26;;;;;;;41.45;27.52;;;25.30;68.20;;;;;;9169514;19;20015;-71
2022/08/17 15:57:41;;;;;;;35.05;25.15;;;25.30;68.20;;;;;;9173178;19;20018;-70
2022/08/17 16:00:46;;;;;;;38.38;27.52;;;25.20;68.30;;;;;;9170354;19;20116;-71
2022/08/17 16:04:11;;;;;;;33.60;24.05;;;25.20;68.30;;;;;;9173094;19;20019;-69
2022/08/17 16:07:35;;;;;;;29.42;21.33;;;25.10;68.30;;;;;;9177568;19;20027;-70
2022/08/17 16:10:40;;;;;;;30.60;19.98;;;25.10;68.40;;;;;;9175436;19;20026;-69
2022/08/17 16:13:48;;;;;;;29.95;21.50;;;25.00;68.40;;;;;;9182753;19;20018;-69
2022/08/17 16:17:00;;;;;;;30.08;19.83;;;25.00;68.50;;;;;;9179159;19;20023;-70
2022/08/17 16:20:07;;;;;;;27.83;20.30;;;24.90;68.60;;;;;;9182576;19;20018;-68
2022/08/17 16:23:12;;;;;;;34.22;22.98;;;24.90;68.70;;;;;;9182705;19;20014;-69
2022/08/17 16:26:24;;;;;;;31.02;21.88;;;24.80;68.70;;;;;;9180768;19;20843;-69
2022/08/17 16:29:32;;;;;;;39.40;23.95;;;24.80;68.80;;;;;;9181619;19;20014;-70
2022/08/17 16:32:37;;;;;;;36.58;22.33;;;24.70;69.00;;;;;;9182293;19;20018;-69
2022/08/17 16:35:43;;;;;;;30.45;21.42;;;24.70;69.20;;;;;;9181988;19;20022;-69
2022/08/17 16:38:48;;;;;;;31.30;20.50;;;24.70;69.20;;;;;;9180271;19;20021;-70
2022/08/17 16:41:54;;;;;;;30.92;21.17;;;24.70;69.20;;;;;;9182738;19;20046;-68
2022/08/17 16:45:06;;;;;;;29.83;20.00;;;24.80;69.40;;;;;;9179766;19;20030;-67
2022/08/17 16:48:11;;;;;;;23.83;17.40;;;24.80;69.40;;;;;;9181422;19;20015;-69